Time;durP1;ratioP1;P1;durP2;ratioP2;P2;SDS_P1;SDS_P2;PMS_P1;PMS_P2;Temp;Humidity;BMP_temperature;BMP_pressure;BME280_temperature;BME280_humidity;BME280_pressure;Samples;Min_cycle;Max_cycle;Signal;HPM_P1;HPM_P2
2022/11/05 00:10:19;;;;;;;16.40;9.25;;;11.70;99.90;;;;;;5066749;28;20043;-78
2022/11/05 00:18:16;;;;;;;17.35;8.80;;;11.60;99.90;;;;;;5049421;28;20093;-78
2022/11/05 00:20:43;;;;;;;16.33;9.43;;;11.50;99.90;;;;;;5040817;28;21581;-78
2022/11/05 00:25:55;;;;;;;18.75;9.60;;;11.50;99.90;;;;;;5040001;28;20037;-78
2022/11/05 00:28:22;;;;;;;23.30;9.65;;;11.40;99.90;;;;;;5040109;28;20052;-78
2022/11/05 00:30:50;;;;;;;20.40;9.20;;;11.40;99.90;;;;;;5042371;28;20037;-78
2022/11/05 00:33:19;;;;;;;20.27;8.93;;;11.30;99.90;;;;;;5041926;28;20186;-78
2022/11/05 00:35:47;;;;;;;18.75;9.15;;;11.30;99.90;;;;;;5044727;28;20099;-78
2022/11/05 00:38:14;;;;;;;21.02;8.65;;;11.30;99.90;;;;;;5041908;28;20513;-78
2022/11/05 00:40:41;;;;;;;20.25;9.13;;;11.30;99.90;;;;;;5050809;28;20214;-78
2022/11/05 00:45:52;;;;;;;20.17;8.55;;;11.20;99.90;;;;;;5042422;28;20037;-78
2022/11/05 00:51:06;;;;;;;14.35;9.23;;;11.20;99.90;;;;;;5044122;28;20045;-78
2022/11/05 00:53:33;;;;;;;16.27;8.77;;;11.10;99.90;;;;;;5042178;28;20105;-78
2022/11/05 00:56:00;;;;;;;16.70;9.32;;;11.10;99.90;;;;;;5038476;28;20049;-78
2022/11/05 00:58:28;;;;;;;15.13;9.40;;;11.10;99.90;;;;;;5039639;28;20485;-78
2022/11/05 01:00:56;;;;;;;21.98;9.52;;;11.10;99.90;;;;;;5045609;28;20037;-78
2022/11/05 01:03:26;;;;;;;13.77;8.13;;;11.10;99.90;;;;;;5041259;28;20040;-78
2022/11/05 01:05:55;;;;;;;20.67;8.95;;;11.00;99.90;;;;;;5044507;28;20051;-78
2022/11/05 01:08:24;;;;;;;16.40;9.38;;;11.00;99.90;;;;;;5042506;28;20044;-78
2022/11/05 01:10:52;;;;;;;15.43;8.98;;;11.00;99.90;;;;;;5042598;28;20041;-78
2022/11/05 01:13:21;;;;;;;18.50;8.90;;;11.00;99.90;;;;;;5041968;28;20041;-78
2022/11/05 01:15:49;;;;;;;14.82;8.45;;;10.90;99.90;;;;;;5037385;28;20052;-78
2022/11/05 01:18:17;;;;;;;18.38;9.25;;;10.90;99.90;;;;;;5041383;28;20064;-78
2022/11/05 01:20:45;;;;;;;17.42;9.35;;;10.90;99.90;;;;;;5041523;28;20386;-78
2022/11/05 01:23:12;;;;;;;17.13;9.50;;;10.90;99.90;;;;;;5043557;28;20485;-78
2022/11/05 01:25:39;;;;;;;16.23;8.90;;;10.90;99.90;;;;;;5040694;28;20498;-78
2022/11/05 01:28:08;;;;;;;18.25;10.57;;;10.80;99.90;;;;;;5041692;28;20493;-78
2022/11/05 01:30:35;;;;;;;23.35;10.35;;;10.80;99.90;;;;;;5039716;28;20124;-78
2022/11/05 01:33:03;;;;;;;20.67;10.32;;;10.80;99.90;;;;;;5045674;28;20040;-78
2022/11/05 01:35:30;;;;;;;17.30;10.35;;;10.80;99.90;;;;;;5037692;28;20545;-78
2022/11/05 01:37:58;;;;;;;19.98;9.82;;;10.80;99.90;;;;;;5041372;28;20041;-78
2022/11/05 01:40:26;;;;;;;22.63;9.30;;;10.90;99.90;;;;;;5046016;28;20060;-78
2022/11/05 01:42:53;;;;;;;21.00;10.30;;;10.90;99.90;;;;;;5038100;28;20041;-78
2022/11/05 01:45:22;;;;;;;27.15;10.77;;;10.80;99.90;;;;;;5042854;28;20052;-78
2022/11/05 01:47:55;;;;;;;17.83;10.38;;;10.80;99.90;;;;;;5043258;28;20045;-78
2022/11/05 01:50:34;;;;;;;19.25;10.40;;;10.80;99.90;;;;;;5049828;28;20044;-78
2022/11/05 01:53:08;;;;;;;18.25;10.10;;;10.80;99.90;;;;;;5049596;28;20047;-78
2022/11/05 01:55:40;;;;;;;18.30;10.80;;;10.80;99.90;;;;;;5044663;28;20045;-78
2022/11/05 01:58:09;;;;;;;18.15;10.25;;;10.80;99.90;;;;;;5044217;28;20044;-78
2022/11/05 02:00:36;;;;;;;15.73;9.55;;;10.80;99.90;;;;;;5048706;28;20751;-78
2022/11/05 02:03:03;;;;;;;24.77;10.93;;;10.80;99.90;;;;;;5053365;28;20064;-78
2022/11/05 02:05:33;;;;;;;19.67;10.90;;;10.80;99.90;;;;;;5048167;28;20598;-78
2022/11/05 02:08:01;;;;;;;20.38;11.05;;;10.80;99.90;;;;;;5044898;28;20041;-78
2022/11/05 02:10:29;;;;;;;20.23;11.10;;;10.80;99.90;;;;;;5045565;28;20512;-78
2022/11/05 02:12:56;;;;;;;22.67;10.82;;;10.70;99.90;;;;;;5044099;28;20041;-78
2022/11/05 02:15:30;;;;;;;20.20;10.75;;;10.80;99.90;;;;;;5046685;28;20051;-78
2022/11/05 02:18:15;;;;;;;21.95;11.82;;;10.80;99.90;;;;;;5045683;28;20048;-78
2022/11/05 02:20:47;;;;;;;23.35;10.98;;;10.70;99.90;;;;;;5048009;28;20132;-78
2022/11/05 02:23:40;;;;;;;18.63;11.30;;;10.70;99.90;;;;;;5047547;28;20051;-79
2022/11/05 02:26:43;;;;;;;22.25;11.15;;;10.70;99.90;;;;;;5049802;28;20049;-78
2022/11/05 02:29:48;;;;;;;22.92;11.35;;;10.70;99.90;;;;;;5057138;28;20056;-78
2022/11/05 02:32:30;;;;;;;18.42;10.57;;;10.70;99.90;;;;;;5023686;28;20052;-78
2022/11/05 02:35:03;;;;;;;21.17;10.93;;;10.70;99.90;;;;;;5047053;28;20041;-78
2022/11/05 02:37:38;;;;;;;19.98;11.55;;;10.70;99.90;;;;;;5046898;28;20055;-78
2022/11/05 02:40:11;;;;;;;18.27;11.05;;;10.60;99.90;;;;;;5052943;28;20049;-78
2022/11/05 02:42:44;;;;;;;18.30;11.27;;;10.60;99.90;;;;;;5055024;28;20051;-78
2022/11/05 02:45:21;;;;;;;19.98;11.23;;;10.60;99.90;;;;;;5047987;28;20042;-78
2022/11/05 02:47:52;;;;;;;24.42;12.50;;;10.60;99.90;;;;;;5060761;22;20126;-79
2022/11/05 02:50:23;;;;;;;20.13;12.27;;;10.60;99.90;;;;;;5044026;28;20120;-79
2022/11/05 02:52:57;;;;;;;18.65;11.32;;;10.60;99.90;;;;;;5044823;28;20086;-80
2022/11/05 02:55:28;;;;;;;17.70;12.15;;;10.70;99.90;;;;;;5036032;28;20056;-79
2022/11/05 02:57:55;;;;;;;;;;;10.60;99.90;;;;;;5018438;28;20056;-79
2022/11/05 03:00:41;;;;;;;19.55;12.27;;;10.60;99.90;;;;;;5028887;28;20032;-79
2022/11/05 03:03:16;;;;;;;19.75;12.18;;;10.60;99.90;;;;;;5009764;28;20051;-79
2022/11/05 03:05:56;;;;;;;18.80;12.50;;;10.60;99.90;;;;;;5025970;28;20041;-79
2022/11/05 03:08:35;;;;;;;20.35;12.48;;;10.60;99.90;;;;;;5028386;28;20053;-80
2022/11/05 03:11:08;;;;;;;22.75;12.25;;;10.60;99.90;;;;;;5026035;28;20129;-79
2022/11/05 03:13:41;;;;;;;17.38;11.55;;;10.60;99.90;;;;;;5028730;28;20540;-80
2022/11/05 03:16:15;;;;;;;18.52;12.18;;;10.60;99.90;;;;;;5024801;28;20045;-79
2022/11/05 03:18:47;;;;;;;17.95;12.00;;;10.60;99.90;;;;;;5027920;28;20045;-79
2022/11/05 03:21:20;;;;;;;20.67;11.57;;;10.60;99.90;;;;;;5027619;28;20065;-82
2022/11/05 03:23:51;;;;;;;25.10;13.05;;;10.50;99.90;;;;;;5028466;28;20051;-82
2022/11/05 03:26:23;;;;;;;21.73;12.68;;;10.50;99.90;;;;;;5026646;28;20045;-79
2022/11/05 03:28:54;;;;;;;23.35;13.20;;;10.50;99.90;;;;;;5027417;28;20529;-79
2022/11/05 03:31:22;;;;;;;23.88;12.50;;;10.50;99.90;;;;;;5026429;28;20038;-79
2022/11/05 03:33:52;;;;;;;19.58;12.43;;;10.50;99.90;;;;;;5027663;28;20072;-79
2022/11/05 03:36:25;;;;;;;20.25;12.05;;;10.40;99.90;;;;;;5025893;28;20514;-79
2022/11/05 03:38:53;;;;;;;20.90;12.63;;;10.50;99.90;;;;;;5010235;28;20057;-79
2022/11/05 03:41:21;;;;;;;22.63;13.20;;;10.40;99.90;;;;;;5027163;28;20045;-79
2022/11/05 03:43:53;;;;;;;22.08;12.82;;;10.40;99.90;;;;;;5028576;28;20512;-82
2022/11/05 03:46:26;;;;;;;19.58;12.60;;;10.40;99.90;;;;;;5026203;28;20052;-79
2022/11/05 03:48:56;;;;;;;23.05;12.18;;;10.40;99.90;;;;;;5008732;28;20045;-79
2022/11/05 03:51:29;;;;;;;17.35;10.95;;;10.40;99.90;;;;;;5027739;28;20045;-79
2022/11/05 03:53:58;;;;;;;20.45;12.15;;;10.40;99.90;;;;;;5027155;28;20041;-79
2022/11/05 03:56:33;;;;;;;20.55;12.30;;;10.40;99.90;;;;;;5005791;28;20045;-79
2022/11/05 03:59:01;;;;;;;18.05;11.10;;;10.40;99.90;;;;;;5027668;28;20561;-79
2022/11/05 04:01:28;;;;;;;21.77;12.70;;;10.40;99.90;;;;;;5025099;28;20045;-79
2022/11/05 04:03:56;;;;;;;20.85;12.05;;;10.30;99.90;;;;;;5025369;28;20045;-81
2022/11/05 04:14:38;;;;;;;20.75;13.85;;;10.30;99.90;;;;;;5026361;28;20103;-82
2022/11/05 04:17:08;;;;;;;20.27;12.35;;;10.30;99.90;;;;;;5026734;28;20048;-79
2022/11/05 04:25:07;;;;;;;20.50;13.18;;;10.30;99.90;;;;;;5026237;28;20042;-79
2022/11/05 04:27:35;;;;;;;17.88;11.77;;;10.30;99.90;;;;;;5027047;28;20437;-79
2022/11/05 04:30:19;;;;;;;24.60;13.70;;;10.30;99.90;;;;;;5026345;28;20502;-79
2022/11/05 04:33:00;;;;;;;20.50;12.38;;;10.30;99.90;;;;;;5023065;28;20037;-79
2022/11/05 04:35:32;;;;;;;21.75;12.48;;;10.30;99.90;;;;;;5025245;28;20038;-79
2022/11/05 04:37:59;;;;;;;22.20;13.20;;;10.30;99.90;;;;;;5025661;28;20037;-79
2022/11/05 04:40:27;;;;;;;20.50;12.57;;;10.20;99.90;;;;;;5025066;28;20049;-79
2022/11/05 04:42:54;;;;;;;21.30;12.85;;;10.20;99.90;;;;;;5025982;28;20391;-79
2022/11/05 04:45:22;;;;;;;22.00;13.18;;;10.20;99.90;;;;;;5027049;28;20119;-79
2022/11/05 04:47:49;;;;;;;18.77;11.68;;;10.20;99.90;;;;;;5025344;28;20041;-79
2022/11/05 04:50:16;;;;;;;19.05;13.20;;;10.20;99.90;;;;;;5022641;28;20131;-79
2022/11/05 04:52:44;;;;;;;25.02;12.15;;;10.20;99.90;;;;;;5026167;28;20049;-82
2022/11/05 04:55:11;;;;;;;24.00;13.75;;;10.20;99.90;;;;;;5026971;28;20700;-79
2022/11/05 04:57:38;;;;;;;18.63;11.85;;;10.20;99.90;;;;;;5025327;28;20701;-79
2022/11/05 05:00:07;;;;;;;20.33;13.32;;;10.20;99.90;;;;;;5028575;28;20044;-78
2022/11/05 05:02:35;;;;;;;19.67;12.35;;;10.20;99.90;;;;;;5026516;28;20044;-80
2022/11/05 05:05:02;;;;;;;19.77;12.90;;;10.20;99.90;;;;;;5025149;28;20034;-80
2022/11/05 05:07:28;;;;;;;19.27;12.18;;;10.20;99.90;;;;;;5025633;28;20509;-80
2022/11/05 05:09:57;;;;;;;23.00;12.32;;;10.20;99.90;;;;;;5026006;28;20041;-80
2022/11/05 05:12:24;;;;;;;21.05;12.80;;;10.10;99.90;;;;;;5023973;28;20045;-79
2022/11/05 05:14:50;;;;;;;18.13;12.18;;;10.20;99.90;;;;;;5026966;28;20040;-79
2022/11/05 05:17:17;;;;;;;22.48;12.23;;;10.20;99.90;;;;;;5024555;28;20053;-79
2022/11/05 05:22:29;;;;;;;19.58;11.65;;;10.20;99.90;;;;;;5024294;28;20585;-79
2022/11/05 05:24:58;;;;;;;18.45;12.18;;;10.20;99.90;;;;;;5025781;28;20490;-81
2022/11/05 05:27:28;;;;;;;19.63;12.13;;;10.20;99.90;;;;;;5023697;28;20043;-79
2022/11/05 05:29:55;;;;;;;19.67;12.48;;;10.20;99.90;;;;;;5025245;28;20052;-79
2022/11/05 05:32:25;;;;;;;19.55;13.20;;;10.10;99.90;;;;;;5026426;28;20069;-79
2022/11/05 05:34:52;;;;;;;19.60;12.38;;;10.10;99.90;;;;;;5026256;28;20059;-79
2022/11/05 05:37:19;;;;;;;22.58;12.48;;;10.10;99.90;;;;;;5021612;28;20041;-79
2022/11/05 05:39:48;;;;;;;19.35;13.10;;;10.10;99.90;;;;;;5026299;28;20153;-79
2022/11/05 05:42:16;;;;;;;16.83;12.45;;;10.10;99.90;;;;;;5025831;28;20051;-79
2022/11/05 05:44:43;;;;;;;24.20;13.52;;;10.10;99.90;;;;;;5023106;28;20115;-79
2022/11/05 05:47:10;;;;;;;23.67;14.13;;;10.00;99.90;;;;;;5026370;28;20501;-78
2022/11/05 05:49:37;;;;;;;26.13;14.32;;;10.00;99.90;;;;;;5024316;28;20042;-79
2022/11/05 05:52:04;;;;;;;20.20;13.48;;;10.00;99.90;;;;;;5031932;28;20052;-82
2022/11/05 05:54:31;;;;;;;18.70;12.30;;;10.00;99.90;;;;;;5030667;28;20046;-79
2022/11/05 05:57:01;;;;;;;24.63;14.07;;;10.00;99.90;;;;;;5031633;28;20034;-80
2022/11/05 05:59:30;;;;;;;22.88;13.98;;;10.00;99.90;;;;;;5032200;28;20065;-79
2022/11/05 06:01:56;;;;;;;21.67;13.88;;;10.00;99.90;;;;;;5032666;28;20052;-79
2022/11/05 06:04:23;;;;;;;25.58;14.15;;;10.00;99.90;;;;;;5014091;28;20506;-79
2022/11/05 06:06:50;;;;;;;24.52;14.18;;;10.00;99.90;;;;;;5032467;28;20144;-78
2022/11/05 06:09:17;;;;;;;21.98;14.15;;;10.00;99.90;;;;;;5031399;28;20052;-79
2022/11/05 06:11:44;;;;;;;24.60;14.88;;;10.00;99.90;;;;;;5032540;28;20095;-78
2022/11/05 06:14:12;;;;;;;22.13;13.48;;;10.00;99.90;;;;;;5031727;28;20045;-81
2022/11/05 06:16:40;;;;;;;23.83;13.27;;;9.90;99.90;;;;;;5031108;28;20054;-78
2022/11/05 06:19:08;;;;;;;20.83;14.40;;;9.90;99.90;;;;;;5011600;28;20132;-79
2022/11/05 06:21:37;;;;;;;21.95;13.35;;;9.90;99.90;;;;;;5032629;28;20033;-78
2022/11/05 06:24:04;;;;;;;23.75;13.32;;;9.90;99.90;;;;;;5032341;28;20045;-79
2022/11/05 06:26:34;;;;;;;24.15;14.45;;;9.90;99.90;;;;;;5031325;28;20498;-78
2022/11/05 06:29:01;;;;;;;27.13;14.32;;;9.90;99.90;;;;;;5032165;28;20037;-78
2022/11/05 06:31:28;;;;;;;21.67;14.20;;;9.90;99.90;;;;;;5032201;28;20193;-78
2022/11/05 06:33:56;;;;;;;24.05;14.85;;;10.00;99.90;;;;;;5032730;28;20401;-78
2022/11/05 06:36:23;;;;;;;25.52;14.85;;;10.00;99.90;;;;;;5030296;28;20053;-79
2022/11/05 06:38:50;;;;;;;24.13;15.05;;;9.90;99.90;;;;;;5028447;28;20037;-78
2022/11/05 06:41:17;;;;;;;22.45;15.20;;;10.00;99.90;;;;;;5031290;28;20042;-81
2022/11/05 06:43:44;;;;;;;25.95;15.43;;;9.90;99.90;;;;;;5029412;28;20041;-77
2022/11/05 06:46:11;;;;;;;26.35;16.52;;;9.90;99.90;;;;;;5030965;28;20112;-78
2022/11/05 06:48:42;;;;;;;28.00;16.25;;;9.90;99.90;;;;;;5030905;28;20238;-81
2022/11/05 06:51:11;;;;;;;;;;;9.90;99.90;;;;;;5030506;28;20038;-78
2022/11/05 06:53:37;;;;;;;29.75;17.60;;;9.90;99.90;;;;;;5031423;28;20043;-78
2022/11/05 06:56:05;;;;;;;27.52;16.83;;;9.90;99.90;;;;;;5030768;28;20038;-78
2022/11/05 06:58:32;;;;;;;30.13;17.25;;;9.80;99.90;;;;;;5030758;28;20077;-81
2022/11/05 07:01:03;;;;;;;31.73;17.75;;;9.90;99.90;;;;;;5031885;28;20136;-78
2022/11/05 07:03:30;;;;;;;27.02;17.58;;;9.90;99.90;;;;;;5026966;28;20044;-78
2022/11/05 07:05:59;;;;;;;28.08;17.42;;;9.90;99.90;;;;;;5025796;28;20053;-78
2022/11/05 07:08:27;;;;;;;24.83;16.73;;;9.90;99.90;;;;;;5028444;28;20056;-78
2022/11/05 07:10:54;;;;;;;32.70;16.92;;;10.00;99.90;;;;;;5028303;28;20042;-78
2022/11/05 07:13:21;;;;;;;27.95;17.23;;;9.90;99.90;;;;;;5025704;28;20038;-78
2022/11/05 07:15:48;;;;;;;27.23;16.98;;;9.90;99.90;;;;;;5024723;28;20642;-81
2022/11/05 07:18:15;;;;;;;29.67;18.17;;;9.90;99.90;;;;;;5028516;28;20060;-80
2022/11/05 07:20:42;;;;;;;28.25;16.63;;;9.90;99.90;;;;;;5028440;28;20038;-80
2022/11/05 07:23:12;;;;;;;27.75;16.92;;;9.90;99.90;;;;;;5028424;28;20049;-80
2022/11/05 07:25:42;;;;;;;32.83;17.38;;;9.90;99.90;;;;;;5027108;28;20052;-80
2022/11/05 07:28:10;;;;;;;30.33;17.25;;;9.90;99.90;;;;;;5026719;28;20042;-80
2022/11/05 07:30:37;;;;;;;26.60;16.98;;;10.00;99.90;;;;;;5026984;28;20049;-81
2022/11/05 07:33:04;;;;;;;25.30;16.85;;;10.00;99.90;;;;;;5028268;28;20080;-81
2022/11/05 07:35:31;;;;;;;30.15;18.35;;;10.00;99.90;;;;;;5027399;28;20517;-81
2022/11/05 07:38:01;;;;;;;34.25;18.30;;;10.00;99.90;;;;;;5026997;28;20041;-82
2022/11/05 07:40:29;;;;;;;34.78;19.33;;;10.00;99.90;;;;;;5026498;28;20045;-81
2022/11/05 07:42:58;;;;;;;31.65;18.05;;;10.10;99.90;;;;;;5024126;28;20091;-82
2022/11/05 07:45:26;;;;;;;28.35;17.15;;;10.10;99.90;;;;;;5026946;28;20041;-82
2022/11/05 07:47:54;;;;;;;26.23;16.38;;;10.10;99.90;;;;;;5025653;28;20060;-81
2022/11/05 07:50:23;;;;;;;31.55;17.52;;;10.10;99.90;;;;;;5026011;28;20073;-81
2022/11/05 07:52:50;;;;;;;28.50;17.92;;;10.20;99.90;;;;;;5028388;28;20552;-82
2022/11/05 07:55:19;;;;;;;29.35;16.88;;;10.20;99.90;;;;;;5026763;28;20670;-82
2022/11/05 07:57:46;;;;;;;31.52;16.90;;;10.20;99.90;;;;;;5027086;28;20043;-82
2022/11/05 08:00:17;;;;;;;27.40;16.98;;;10.20;99.90;;;;;;5027693;28;20042;-82
2022/11/05 08:02:44;;;;;;;25.63;14.95;;;10.30;99.90;;;;;;5026392;28;20044;-82
2022/11/05 08:05:10;;;;;;;24.77;15.77;;;10.30;99.90;;;;;;5023428;28;20041;-80
2022/11/05 08:07:37;;;;;;;28.58;16.40;;;10.30;99.90;;;;;;5025928;28;20045;-85
2022/11/05 08:10:05;;;;;;;26.23;15.60;;;10.30;99.90;;;;;;5023088;28;20051;-83
2022/11/05 08:12:34;;;;;;;24.70;15.25;;;10.40;99.90;;;;;;5029150;28;20544;-83
2022/11/05 08:15:00;;;;;;;27.10;14.70;;;10.40;99.90;;;;;;5027781;28;20033;-81
2022/11/05 08:17:29;;;;;;;22.00;14.30;;;10.50;99.90;;;;;;5029256;28;20211;-84
2022/11/05 08:19:57;;;;;;;27.67;15.32;;;10.50;99.90;;;;;;5029526;28;20048;-79
2022/11/05 08:22:24;;;;;;;24.55;14.88;;;10.50;99.90;;;;;;5028603;28;20057;-81
2022/11/05 08:24:55;;;;;;;27.52;15.18;;;10.60;99.90;;;;;;5026323;28;20056;-79
2022/11/05 08:27:22;;;;;;;24.65;13.32;;;10.60;99.90;;;;;;5028725;28;20042;-79
2022/11/05 08:29:50;;;;;;;26.00;14.15;;;10.70;99.90;;;;;;5028976;28;20128;-79
2022/11/05 08:32:17;;;;;;;22.00;12.88;;;10.70;99.90;;;;;;5029981;28;20053;-79
2022/11/05 08:34:45;;;;;;;26.15;14.32;;;10.70;99.90;;;;;;5018916;28;20187;-79
2022/11/05 08:37:15;;;;;;;25.10;13.43;;;10.80;99.90;;;;;;5024861;28;20514;-78
2022/11/05 08:39:42;;;;;;;22.67;13.27;;;10.80;99.90;;;;;;5028822;28;20051;-79
2022/11/05 08:42:09;;;;;;;22.23;12.48;;;10.80;99.90;;;;;;5029945;28;20601;-79
2022/11/05 08:44:36;;;;;;;22.65;12.98;;;10.90;99.90;;;;;;5015830;28;20046;-79
2022/11/05 08:47:13;;;;;;;21.83;11.93;;;10.90;99.90;;;;;;5034740;23;20021;-88
2022/11/05 08:49:43;;;;;;;22.13;12.30;;;10.90;99.90;;;;;;5065586;28;20052;-89
2022/11/05 08:52:11;;;;;;;19.92;11.95;;;11.00;99.90;;;;;;5061782;28;20044;-91
2022/11/05 08:54:38;;;;;;;20.35;11.63;;;11.00;99.90;;;;;;5049351;28;20129;-90
2022/11/05 08:57:05;;;;;;;23.60;12.02;;;11.00;99.90;;;;;;5064027;28;20550;-90
2022/11/05 08:59:32;;;;;;;26.25;11.88;;;11.10;99.90;;;;;;5052841;28;20123;-90
2022/11/05 09:02:05;;;;;;;21.73;12.35;;;11.10;99.90;;;;;;5045040;28;20037;-92
2022/11/05 09:04:32;;;;;;;21.38;11.35;;;11.10;99.90;;;;;;5030889;28;20076;-92
2022/11/05 09:07:02;;;;;;;21.95;10.80;;;11.20;99.90;;;;;;5047176;28;20580;-92
2022/11/05 09:09:32;;;;;;;20.88;11.20;;;11.20;99.90;;;;;;5042874;28;20083;-93
2022/11/05 09:12:06;;;;;;;16.80;10.40;;;11.30;99.90;;;;;;5046518;28;20055;-94
2022/11/05 09:14:33;;;;;;;18.95;10.48;;;11.30;99.90;;;;;;5050533;28;20355;-90
2022/11/05 09:17:03;;;;;;;21.83;11.88;;;11.30;99.90;;;;;;5067350;28;20094;-90
2022/11/05 09:19:31;;;;;;;21.67;10.60;;;11.40;99.90;;;;;;5046773;28;20051;-88
2022/11/05 09:21:58;;;;;;;23.88;11.23;;;11.40;99.90;;;;;;5048757;28;20120;-89
2022/11/05 09:24:26;;;;;;;23.63;11.20;;;11.40;99.90;;;;;;5043716;28;20053;-89
2022/11/05 09:26:55;;;;;;;22.35;10.38;;;11.50;99.90;;;;;;5042888;28;20116;-90
2022/11/05 09:29:22;;;;;;;24.90;11.43;;;11.50;99.90;;;;;;5043851;28;20505;-90
2022/11/05 09:31:59;;;;;;;21.17;10.32;;;11.50;99.90;;;;;;5049538;28;20521;-91
2022/11/05 09:34:26;;;;;;;21.52;9.95;;;11.60;99.90;;;;;;5044526;28;20061;-89
2022/11/05 09:36:54;;;;;;;20.23;10.27;;;11.60;99.90;;;;;;5038327;28;20113;-89
2022/11/05 09:39:21;;;;;;;20.55;10.07;;;11.70;99.90;;;;;;5033459;28;20075;-88
2022/11/05 09:41:48;;;;;;;22.45;10.52;;;11.70;99.90;;;;;;5049186;28;20497;-89
2022/11/05 09:44:19;;;;;;;22.42;9.95;;;11.70;99.90;;;;;;5033503;28;20053;-88
2022/11/05 09:46:49;;;;;;;22.35;9.43;;;11.70;99.90;;;;;;5044824;28;20059;-89
2022/11/05 09:49:24;;;;;;;16.13;9.35;;;11.70;99.90;;;;;;5049896;28;20126;-91
2022/11/05 09:51:52;;;;;;;19.10;9.55;;;11.80;99.90;;;;;;5054928;28;20037;-84
2022/11/05 09:54:25;;;;;;;19.70;10.40;;;11.80;99.90;;;;;;5047942;28;20041;-84
2022/11/05 09:56:52;;;;;;;20.92;10.52;;;11.80;99.90;;;;;;5045833;28;20614;-84
2022/11/05 09:59:24;;;;;;;20.83;10.82;;;11.80;99.90;;;;;;5047728;28;20048;-84
2022/11/05 10:01:53;;;;;;;18.95;10.45;;;11.80;99.90;;;;;;5047230;28;20079;-84
2022/11/05 10:04:22;;;;;;;22.88;10.25;;;11.80;99.90;;;;;;5047960;28;20779;-84
2022/11/05 10:06:52;;;;;;;19.20;10.65;;;11.80;99.90;;;;;;5045631;28;20029;-85
2022/11/05 10:09:22;;;;;;;19.85;11.10;;;11.90;99.90;;;;;;5048440;28;20049;-84
2022/11/05 10:11:53;;;;;;;15.52;9.75;;;11.90;99.90;;;;;;5048026;28;20060;-86
2022/11/05 10:14:24;;;;;;;20.25;10.93;;;11.90;99.90;;;;;;5048010;28;20131;-84
2022/11/05 10:16:54;;;;;;;22.25;10.73;;;11.90;99.90;;;;;;5044235;28;20037;-83
2022/11/05 10:19:24;;;;;;;16.42;9.48;;;11.90;99.90;;;;;;5047164;28;20077;-84
2022/11/05 10:21:55;;;;;;;16.02;9.63;;;11.90;99.90;;;;;;5038721;28;20051;-89
2022/11/05 10:24:35;;;;;;;19.07;9.37;;;11.90;99.90;;;;;;5042338;28;20052;-86
2022/11/05 10:27:09;;;;;;;21.60;8.63;;;12.00;99.90;;;;;;5042182;28;20081;-84
2022/11/05 10:29:37;;;;;;;18.77;8.90;;;12.00;99.90;;;;;;5029793;28;20472;-84
2022/11/05 10:32:06;;;;;;;18.13;8.73;;;12.10;99.90;;;;;;5041354;28;20037;-84
2022/11/05 10:34:35;;;;;;;20.13;8.75;;;12.10;99.90;;;;;;5057156;28;20557;-85
2022/11/05 10:37:02;;;;;;;14.57;8.82;;;12.10;99.90;;;;;;5054626;28;20033;-84
2022/11/05 10:39:31;;;;;;;19.48;8.77;;;12.10;99.90;;;;;;5044051;28;20055;-84
2022/11/05 10:42:16;;;;;;;16.45;8.45;;;12.10;99.90;;;;;;5049918;28;20127;-84
2022/11/05 10:44:49;;;;;;;14.70;8.73;;;12.10;99.90;;;;;;5036454;28;20124;-84
2022/11/05 10:47:41;;;;;;;17.67;9.00;;;12.10;99.90;;;;;;5047816;28;20045;-84
2022/11/05 10:50:11;;;;;;;19.25;9.20;;;12.20;99.90;;;;;;5011806;28;20500;-84
2022/11/05 10:52:40;;;;;;;15.57;8.75;;;12.10;99.90;;;;;;5052348;28;20045;-87
2022/11/05 10:55:14;;;;;;;17.30;8.70;;;12.10;99.90;;;;;;5038453;28;20047;-85
2022/11/05 10:57:42;;;;;;;18.13;9.07;;;12.20;99.90;;;;;;5035290;28;20044;-84
2022/11/05 11:00:27;;;;;;;14.60;8.55;;;12.20;99.90;;;;;;5035414;28;20128;-87
2022/11/05 11:02:57;;;;;;;16.92;9.10;;;12.20;99.90;;;;;;5034659;28;20049;-86
2022/11/05 11:05:27;;;;;;;18.30;8.93;;;12.30;99.90;;;;;;5034640;28;20501;-86
2022/11/05 11:08:00;;;;;;;18.98;8.93;;;12.40;99.90;;;;;;5038312;28;20040;-90
2022/11/05 11:10:29;;;;;;;13.90;9.10;;;12.40;99.90;;;;;;5037494;28;20450;-86
2022/11/05 11:12:57;;;;;;;17.27;9.50;;;12.40;99.90;;;;;;5047760;28;20446;-84
2022/11/05 11:15:27;;;;;;;17.42;9.15;;;12.50;99.90;;;;;;5036381;28;20045;-85
2022/11/05 11:17:55;;;;;;;21.23;9.07;;;12.40;99.90;;;;;;5033823;28;20129;-85
2022/11/05 11:20:26;;;;;;;19.27;8.93;;;12.40;99.90;;;;;;5040076;28;20528;-85
2022/11/05 11:23:03;;;;;;;18.10;10.48;;;12.50;99.90;;;;;;5022187;28;20111;-84
2022/11/05 11:25:33;;;;;;;19.13;9.48;;;12.50;99.90;;;;;;5039043;28;20490;-84
2022/11/05 11:28:04;;;;;;;19.02;9.10;;;12.50;99.90;;;;;;5046956;28;20039;-83
2022/11/05 11:30:34;;;;;;;18.92;9.95;;;12.60;99.90;;;;;;5037279;28;20083;-83
2022/11/05 11:33:06;;;;;;;17.85;9.63;;;12.60;99.90;;;;;;5040598;28;20052;-84
2022/11/05 11:35:36;;;;;;;20.95;10.48;;;12.60;99.90;;;;;;5032043;28;20124;-84
2022/11/05 11:38:05;;;;;;;24.40;10.15;;;12.70;99.90;;;;;;5013236;28;20464;-84
2022/11/05 11:40:34;;;;;;;20.52;9.93;;;12.70;99.90;;;;;;5031002;28;20053;-82
2022/11/05 11:43:03;;;;;;;23.92;10.32;;;12.70;99.90;;;;;;5045789;28;20036;-82
2022/11/05 11:45:36;;;;;;;17.02;9.85;;;12.80;99.90;;;;;;5045921;28;20041;-82
2022/11/05 11:48:06;;;;;;;16.67;9.10;;;12.80;99.90;;;;;;5046321;28;20454;-82
2022/11/05 11:50:38;;;;;;;18.63;8.85;;;12.80;99.90;;;;;;5045128;28;20045;-82
2022/11/05 11:53:35;;;;;;;17.35;8.93;;;12.80;99.90;;;;;;5029254;28;20095;-82
2022/11/05 11:56:15;;;;;;;16.35;8.20;;;12.80;99.90;;;;;;5028996;28;20045;-82
2022/11/05 11:58:45;;;;;;;14.43;8.30;;;12.80;99.90;;;;;;5034202;28;20048;-82
2022/11/05 12:01:36;;;;;;;15.45;8.63;;;12.80;99.90;;;;;;5039569;28;20436;-83
2022/11/05 12:04:05;;;;;;;;;;;12.80;99.90;;;;;;5037261;28;20044;-85
2022/11/05 12:06:36;;;;;;;15.20;8.38;;;12.80;99.90;;;;;;5038261;28;20008;-85
2022/11/05 12:09:09;;;;;;;18.10;7.93;;;12.80;99.90;;;;;;5036721;28;20073;-83
2022/11/05 12:11:42;;;;;;;14.20;7.57;;;12.80;99.90;;;;;;5039428;28;20041;-87
2022/11/05 12:14:21;;;;;;;16.02;7.82;;;12.80;99.90;;;;;;5045526;28;20045;-85
2022/11/05 12:17:08;;;;;;;14.57;7.78;;;12.90;99.90;;;;;;5034227;28;20112;-85
2022/11/05 12:19:54;;;;;;;15.77;7.30;;;12.90;99.90;;;;;;5038043;28;20481;-85
2022/11/05 12:22:33;;;;;;;15.63;7.22;;;12.90;99.90;;;;;;5039280;28;20131;-85
2022/11/05 12:25:15;;;;;;;16.80;7.13;;;13.00;99.90;;;;;;5037093;28;20111;-83
2022/11/05 12:27:55;;;;;;;12.05;6.32;;;13.00;99.90;;;;;;5049934;28;20045;-83
2022/11/05 12:30:23;;;;;;;13.75;6.13;;;13.00;99.90;;;;;;5036897;28;20045;-84
2022/11/05 12:33:14;;;;;;;12.05;6.43;;;13.00;99.90;;;;;;5036700;28;20048;-84
2022/11/05 12:35:59;;;;;;;15.95;5.88;;;13.00;99.90;;;;;;5034069;28;20408;-85
2022/11/05 12:38:46;;;;;;;13.55;6.28;;;13.00;99.90;;;;;;5032975;28;20120;-87
2022/11/05 12:41:19;;;;;;;10.98;6.25;;;13.00;99.90;;;;;;5034238;28;20045;-86
2022/11/05 12:43:56;;;;;;;14.63;6.03;;;13.00;99.90;;;;;;5039154;28;20049;-88
2022/11/05 12:46:29;;;;;;;10.73;5.40;;;13.10;99.90;;;;;;5040346;28;20144;-88
2022/11/05 12:49:30;;;;;;;14.40;5.82;;;13.10;99.90;;;;;;5032589;28;20055;-85
2022/11/05 12:52:07;;;;;;;12.18;5.82;;;13.20;99.90;;;;;;5023798;28;20134;-85
2022/11/05 12:54:46;;;;;;;14.23;5.13;;;13.10;99.90;;;;;;5046983;28;20045;-86
2022/11/05 12:57:14;;;;;;;8.88;4.40;;;13.20;99.90;;;;;;5055525;28;20041;-86
2022/11/05 12:59:46;;;;;;;12.05;5.07;;;13.30;99.90;;;;;;5046107;28;20037;-84
2022/11/05 13:02:19;;;;;;;11.55;4.78;;;13.20;99.90;;;;;;5040159;28;20052;-86
2022/11/05 13:04:51;;;;;;;17.17;5.40;;;13.20;99.90;;;;;;5045514;28;20075;-84
2022/11/05 13:07:23;;;;;;;12.20;4.53;;;13.30;99.90;;;;;;5042848;28;20060;-86
2022/11/05 13:09:55;;;;;;;9.52;4.13;;;13.30;99.90;;;;;;5048152;28;20053;-87
2022/11/05 13:12:29;;;;;;;15.35;4.75;;;13.30;99.90;;;;;;5034788;28;20049;-85
2022/11/05 13:15:02;;;;;;;7.97;3.58;;;13.30;99.90;;;;;;5039907;28;20120;-84
2022/11/05 13:17:33;;;;;;;8.73;4.22;;;13.30;99.90;;;;;;5033357;28;20053;-84
2022/11/05 13:20:05;;;;;;;;;;;13.30;99.90;;;;;;5029578;28;20053;-84
2022/11/05 13:22:36;;;;;;;15.57;4.47;;;13.30;99.90;;;;;;5030293;28;19927;-84
2022/11/05 13:25:18;;;;;;;8.23;3.78;;;13.30;99.90;;;;;;5028332;28;20060;-85
2022/11/05 13:27:53;;;;;;;9.65;3.58;;;13.40;99.90;;;;;;5043172;28;20056;-84
2022/11/05 13:30:22;;;;;;;8.02;3.60;;;13.40;99.90;;;;;;5041802;28;20073;-83